createdAt,value
2017-10-06T00:00:55.396Z,8.50
2017-10-06T00:03:23.668Z,8.40
2017-10-06T00:05:51.952Z,8.50
2017-10-06T00:08:20.224Z,8.40
2017-10-06T00:10:48.507Z,8.50
2017-10-06T00:13:16.772Z,8.50
2017-10-06T00:15:45.060Z,8.50
2017-10-06T00:18:13.327Z,8.50
2017-10-06T00:20:41.633Z,8.40
2017-10-06T00:23:09.140Z,8.40
2017-10-06T00:25:36.644Z,8.40
2017-10-06T00:28:04.179Z,8.30
2017-10-06T00:30:32.456Z,8.40
2017-10-06T00:33:00.744Z,8.30
2017-10-06T00:35:28.244Z,8.30
2017-10-06T00:37:55.761Z,8.30
2017-10-06T00:40:23.264Z,8.20
2017-10-06T00:42:50.784Z,8.30
2017-10-06T00:45:18.284Z,8.40
2017-10-06T00:47:45.804Z,8.40
2017-10-06T00:50:13.309Z,8.40
2017-10-06T00:52:40.849Z,8.30
2017-10-06T00:55:08.348Z,8.30
2017-10-06T00:57:36.625Z,8.20
2017-10-06T01:00:05.067Z,8.20
2017-10-06T01:02:32.571Z,8.20
2017-10-06T01:05:00.858Z,8.20
2017-10-06T01:07:28.364Z,8.20
2017-10-06T01:09:55.884Z,8.20
2017-10-06T01:12:23.383Z,8.20
2017-10-06T01:14:50.908Z,8.10
2017-10-06T01:17:18.413Z,8.20
2017-10-06T01:19:45.942Z,8.10
2017-10-06T01:22:13.444Z,8.10
2017-10-06T01:24:41.708Z,8.10
2017-10-06T01:27:09.232Z,8.10
2017-10-06T01:29:36.736Z,8.10
2017-10-06T01:32:05.024Z,8.00
2017-10-06T01:34:33.297Z,8.00
2017-10-06T01:37:01.584Z,8.10
2017-10-06T01:39:29.088Z,8.00
2017-10-06T01:41:56.607Z,8.10
2017-10-06T01:44:24.124Z,8.00
2017-10-06T01:46:51.650Z,8.00
2017-10-06T01:49:19.945Z,8.00
2017-10-06T01:51:47.452Z,8.00
2017-10-06T01:54:14.968Z,8.00
2017-10-06T01:56:42.472Z,8.00
2017-10-06T01:59:09.992Z,8.00
2017-10-06T02:01:37.492Z,7.90
2017-10-06T02:04:05.011Z,7.90
2017-10-06T02:06:32.516Z,7.80
2017-10-06T02:09:00.036Z,7.80
2017-10-06T02:11:28.664Z,7.80
2017-10-06T02:13:56.193Z,7.80
2017-10-06T02:16:24.460Z,7.80
2017-10-06T02:18:52.727Z,7.90
2017-10-06T02:21:21.015Z,7.90
2017-10-06T02:23:49.280Z,7.90
2017-10-06T02:26:17.576Z,7.90
2017-10-06T02:28:45.080Z,7.80
2017-10-06T02:31:12.605Z,7.90
2017-10-06T02:33:40.112Z,7.80
2017-10-06T02:36:07.632Z,7.90
2017-10-06T02:38:35.139Z,7.90
2017-10-06T02:41:02.659Z,7.80
2017-10-06T02:43:30.159Z,7.80
2017-10-06T02:45:57.689Z,7.80
2017-10-06T02:48:25.200Z,7.70
2017-10-06T02:50:52.704Z,7.60
2017-10-06T02:53:20.234Z,7.60
2017-10-06T02:55:47.739Z,7.60
2017-10-06T02:58:15.264Z,7.50
2017-10-06T03:00:42.768Z,7.60
2017-10-06T03:03:11.060Z,7.50
2017-10-06T03:05:39.327Z,7.40
2017-10-06T03:08:07.628Z,7.40
2017-10-06T03:10:35.141Z,7.40
2017-10-06T03:13:02.654Z,7.40
2017-10-06T03:15:30.180Z,7.40
2017-10-06T03:17:58.448Z,7.50
2017-10-06T03:20:26.736Z,7.50
2017-10-06T03:22:55.004Z,7.40
2017-10-06T03:25:23.291Z,7.30
2017-10-06T03:27:51.556Z,7.30
2017-10-06T03:30:19.861Z,7.20
2017-10-06T03:32:47.368Z,7.20
2017-10-06T03:35:14.874Z,7.20
2017-10-06T03:37:42.404Z,7.20
2017-10-06T03:40:10.681Z,7.30
2017-10-06T03:42:38.968Z,7.30
2017-10-06T03:45:07.235Z,7.30
2017-10-06T03:47:35.519Z,7.30
2017-10-06T03:50:03.792Z,7.30
2017-10-06T03:52:32.080Z,7.30
2017-10-06T03:54:59.585Z,7.30
2017-10-06T03:57:27.104Z,7.20
2017-10-06T03:59:54.607Z,7.20
2017-10-06T04:02:22.392Z,7.20
2017-10-06T04:04:49.895Z,7.10
2017-10-06T04:07:17.399Z,7.10
2017-10-06T04:09:44.927Z,7.10
2017-10-06T04:12:12.728Z,7.10
2017-10-06T04:14:40.244Z,7.00
2017-10-06T04:17:07.752Z,7.00
2017-10-06T04:19:36.041Z,6.90
2017-10-06T04:22:04.304Z,6.90
2017-10-06T04:24:32.597Z,6.90
2017-10-06T04:27:00.864Z,6.90
2017-10-06T04:29:29.148Z,6.80
2017-10-06T04:31:57.417Z,6.80
2017-10-06T04:34:25.696Z,6.90
2017-10-06T04:36:53.967Z,6.90
2017-10-06T04:39:22.251Z,6.80
2017-10-06T04:41:50.527Z,6.90
2017-10-06T04:44:18.801Z,6.90
2017-10-06T04:46:47.104Z,6.80
2017-10-06T04:49:14.607Z,6.80
2017-10-06T04:51:42.128Z,6.80
2017-10-06T04:54:09.633Z,6.80
2017-10-06T04:56:37.155Z,6.80
2017-10-06T04:59:04.669Z,6.70
2017-10-06T05:01:32.948Z,6.60
2017-10-06T05:04:01.213Z,6.60
2017-10-06T05:06:29.500Z,6.60
2017-10-06T05:08:57.772Z,6.60
2017-10-06T05:11:26.056Z,6.60
2017-10-06T05:13:53.564Z,6.50
2017-10-06T05:16:21.080Z,6.60
2017-10-06T05:18:48.579Z,6.50
2017-10-06T05:21:16.210Z,6.50
2017-10-06T05:23:43.715Z,6.50
2017-10-06T05:26:11.217Z,6.50
2017-10-06T05:28:38.737Z,6.50
2017-10-06T05:31:06.244Z,6.50
2017-10-06T05:33:33.764Z,6.40
2017-10-06T05:36:02.035Z,6.40
2017-10-06T05:38:30.324Z,6.50
2017-10-06T05:40:58.592Z,6.60
2017-10-06T05:43:26.872Z,6.60
2017-10-06T05:45:55.139Z,6.60
2017-10-06T05:48:23.424Z,6.60
2017-10-06T05:50:51.693Z,6.60
2017-10-06T05:53:19.985Z,6.60
2017-10-06T05:55:48.252Z,6.60
2017-10-06T05:58:16.537Z,6.60
2017-10-06T06:00:44.805Z,6.70
2017-10-06T06:03:13.075Z,6.90
2017-10-06T06:05:41.363Z,7.10
2017-10-06T06:08:09.632Z,7.30
2017-10-06T06:10:37.920Z,7.40
2017-10-06T06:13:05.423Z,7.30
2017-10-06T06:15:32.944Z,7.40
2017-10-06T06:18:00.452Z,7.50
2017-10-06T06:20:27.971Z,7.50
2017-10-06T06:22:55.472Z,7.50
2017-10-06T06:25:22.995Z,7.50
2017-10-06T06:27:50.500Z,7.50
2017-10-06T06:30:18.020Z,7.50
2017-10-06T06:32:45.524Z,7.50
2017-10-06T06:35:13.808Z,7.50
2017-10-06T06:37:42.072Z,7.50
2017-10-06T06:40:10.367Z,7.50
2017-10-06T06:42:38.635Z,7.50
2017-10-06T06:45:06.934Z,7.40
2017-10-06T06:47:34.445Z,7.40
2017-10-06T06:50:01.979Z,7.50
2017-10-06T06:52:29.512Z,7.50
2017-10-06T06:54:57.016Z,7.80
2017-10-06T06:57:24.536Z,7.80
2017-10-06T06:59:52.044Z,8.00
2017-10-06T07:02:19.565Z,8.10
2017-10-06T07:04:47.072Z,8.30
2017-10-06T07:07:15.359Z,8.50
2017-10-06T07:09:43.623Z,8.40
2017-10-06T07:12:11.912Z,8.50
2017-10-06T07:14:39.417Z,8.50
2017-10-06T07:17:06.931Z,8.60
2017-10-06T07:19:34.431Z,8.60
2017-10-06T07:22:01.953Z,8.70
2017-10-06T07:24:29.457Z,8.60
2017-10-06T07:26:56.988Z,8.60
2017-10-06T07:29:24.495Z,8.50
2017-10-06T07:31:52.000Z,8.50
2017-10-06T07:34:19.521Z,8.30
2017-10-06T07:36:47.793Z,8.60
2017-10-06T07:39:16.089Z,8.60
2017-10-06T07:41:43.601Z,8.60
2017-10-06T07:44:11.128Z,8.70
2017-10-06T07:46:38.636Z,8.80
2017-10-06T07:49:06.164Z,8.90
2017-10-06T07:51:33.669Z,9.10
2017-10-06T07:54:01.964Z,9.20
2017-10-06T07:56:29.468Z,9.20
2017-10-06T07:58:56.991Z,9.40
2017-10-06T08:01:24.496Z,9.40
2017-10-06T08:03:52.032Z,9.20
2017-10-06T08:06:19.546Z,9.00
2017-10-06T08:08:47.056Z,8.80
2017-10-06T08:11:14.576Z,8.50
2017-10-06T08:13:42.081Z,8.60
2017-10-06T08:16:09.600Z,8.90
2017-10-06T08:18:37.100Z,9.20
2017-10-06T08:21:04.628Z,9.40
2017-10-06T08:23:32.132Z,9.40
2017-10-06T08:26:00.419Z,9.70
2017-10-06T08:28:28.693Z,9.90
2017-10-06T08:30:56.989Z,10.20
2017-10-06T08:33:24.504Z,10.20
2017-10-06T08:35:52.036Z,10.30
2017-10-06T08:38:19.548Z,10.10
2017-10-06T08:40:47.845Z,10.20
2017-10-06T08:43:15.358Z,10.20
2017-10-06T08:45:42.896Z,10.40
2017-10-06T08:48:10.413Z,10.40
2017-10-06T08:50:37.932Z,10.50
2017-10-06T08:53:05.456Z,10.60
2017-10-06T08:55:32.963Z,10.40
2017-10-06T08:58:01.260Z,10.10
2017-10-06T09:00:28.769Z,10.00
2017-10-06T09:02:56.318Z,9.90
2017-10-06T09:05:23.826Z,9.50
2017-10-06T09:07:52.113Z,9.30
2017-10-06T09:10:19.631Z,9.30
2017-10-06T09:12:51.833Z,9.20
2017-10-06T09:15:20.589Z,9.40
2017-10-06T09:17:51.382Z,9.80
2017-10-06T09:20:20.754Z,10.20
2017-10-06T09:22:48.356Z,10.90
2017-10-06T09:25:15.932Z,11.20
2017-10-06T09:27:43.489Z,11.70
2017-10-06T09:30:11.051Z,11.70
2017-10-06T09:32:39.986Z,11.40
2017-10-06T09:35:16.798Z,10.80
2017-10-06T09:37:45.057Z,10.50
2017-10-06T09:40:12.653Z,10.30
2017-10-06T09:42:40.164Z,10.30
2017-10-06T09:45:07.693Z,10.20
2017-10-06T09:47:37.229Z,9.90
2017-10-06T09:50:04.793Z,9.90
2017-10-06T09:52:33.486Z,9.60
2017-10-06T09:55:03.413Z,9.60
2017-10-06T09:57:30.924Z,9.80
2017-10-06T09:59:59.212Z,10.10
2017-10-06T10:02:27.480Z,9.90
2017-10-06T10:04:55.769Z,10.00
2017-10-06T10:07:23.271Z,9.90
2017-10-06T10:09:50.808Z,9.80
2017-10-06T10:12:18.312Z,9.50
2017-10-06T10:14:45.828Z,9.70
2017-10-06T10:17:13.350Z,9.80
2017-10-06T10:19:41.633Z,9.90
2017-10-06T10:22:09.161Z,9.90
2017-10-06T10:24:36.671Z,9.90
2017-10-06T10:27:04.200Z,10.20
2017-10-06T10:29:32.476Z,10.20
2017-10-06T10:32:00.769Z,10.30
2017-10-06T10:34:28.276Z,10.30
2017-10-06T10:36:55.797Z,9.90
2017-10-06T10:39:23.301Z,9.80
2017-10-06T10:41:50.820Z,9.70
2017-10-06T10:44:18.331Z,9.90
2017-10-06T10:46:46.624Z,10.00
2017-10-06T10:49:14.140Z,10.00
2017-10-06T10:51:41.648Z,9.90
2017-10-06T10:54:09.168Z,9.90
2017-10-06T10:56:36.672Z,9.80
2017-10-06T10:59:04.189Z,9.80
2017-10-06T11:01:31.702Z,10.20
2017-10-06T11:03:59.227Z,10.60
2017-10-06T11:06:27.505Z,10.70
2017-10-06T11:08:55.796Z,11.10
2017-10-06T11:11:23.308Z,11.10
2017-10-06T11:13:50.833Z,10.90
2017-10-06T11:16:18.348Z,11.00
2017-10-06T11:18:46.641Z,11.60
2017-10-06T11:21:14.156Z,11.50
2017-10-06T11:23:41.682Z,11.50
2017-10-06T11:26:09.192Z,11.40
2017-10-06T11:28:37.479Z,11.40
2017-10-06T11:31:05.760Z,11.30
2017-10-06T11:33:34.065Z,10.90
2017-10-06T11:36:01.569Z,10.80
2017-10-06T11:38:29.074Z,11.10
2017-10-06T11:40:56.605Z,11.30
2017-10-06T11:43:24.112Z,11.00
2017-10-06T11:45:51.635Z,11.10
2017-10-06T11:48:19.149Z,11.00
2017-10-06T11:50:46.671Z,10.80
2017-10-06T11:53:14.182Z,10.60
2017-10-06T11:55:42.495Z,10.30
2017-10-06T11:58:10.008Z,10.30
2017-10-06T12:00:37.531Z,10.20
2017-10-06T12:03:05.040Z,10.10
2017-10-06T12:05:33.329Z,10.20
2017-10-06T12:08:01.600Z,10.40
2017-10-06T12:10:29.900Z,10.50
2017-10-06T12:12:57.409Z,10.50
2017-10-06T12:15:24.916Z,10.80
2017-10-06T12:17:52.443Z,11.10
2017-10-06T12:20:20.717Z,11.50
2017-10-06T12:22:49.004Z,11.60
2017-10-06T12:25:17.277Z,11.40
2017-10-06T12:27:45.563Z,11.50
2017-10-06T12:30:13.079Z,11.40
2017-10-06T12:32:40.612Z,11.00
2017-10-06T12:35:08.120Z,10.80
2017-10-06T12:37:36.412Z,10.70
2017-10-06T12:40:04.689Z,10.90
2017-10-06T12:42:32.996Z,10.80
2017-10-06T12:45:00.504Z,10.80
2017-10-06T12:47:28.773Z,10.80
2017-10-06T12:49:56.293Z,10.80
2017-10-06T12:52:23.795Z,11.30
2017-10-06T12:54:52.089Z,11.20
2017-10-06T12:57:20.364Z,10.90
2017-10-06T12:59:48.656Z,10.70
2017-10-06T13:02:16.164Z,10.70
2017-10-06T13:04:43.696Z,10.50
2017-10-06T13:07:11.203Z,10.40
2017-10-06T13:09:39.497Z,10.20
2017-10-06T13:12:07.004Z,10.20
2017-10-06T13:14:34.553Z,10.20
2017-10-06T13:17:02.067Z,10.20
2017-10-06T13:19:29.584Z,10.20
2017-10-06T13:21:57.143Z,10.20
2017-10-06T13:24:24.677Z,10.40
2017-10-06T13:26:52.212Z,10.80
2017-10-06T13:29:19.744Z,10.70
2017-10-06T13:31:48.037Z,10.70
2017-10-06T13:34:16.312Z,10.90
2017-10-06T13:36:44.613Z,10.70
2017-10-06T13:39:12.128Z,10.60
2017-10-06T13:41:40.425Z,10.40
2017-10-06T13:44:08.706Z,10.40
2017-10-06T13:46:37.016Z,10.40
2017-10-06T13:49:04.545Z,10.40
2017-10-06T13:51:32.090Z,10.20
2017-10-06T13:54:00.380Z,10.20
2017-10-06T13:56:27.897Z,10.20
2017-10-06T13:58:55.432Z,10.10
2017-10-06T14:01:22.959Z,10.00
2017-10-06T14:03:50.489Z,10.00
2017-10-06T14:06:18.789Z,9.90
2017-10-06T14:08:46.327Z,9.90
2017-10-06T14:11:14.608Z,9.80
2017-10-06T14:13:42.906Z,9.80
2017-10-06T14:16:10.425Z,9.80
2017-10-06T14:18:37.952Z,9.60
2017-10-06T14:21:05.495Z,9.80
2017-10-06T14:23:33.022Z,9.70
2017-10-06T14:26:00.553Z,9.60
2017-10-06T14:28:28.076Z,8.80
2017-10-06T14:30:55.603Z,7.80
2017-10-06T14:33:23.119Z,7.10
2017-10-06T14:35:50.640Z,6.70
2017-10-06T14:38:18.144Z,6.50
2017-10-06T14:40:45.672Z,6.30
2017-10-06T14:43:13.172Z,6.20
2017-10-06T14:45:41.469Z,6.20
2017-10-06T14:48:08.976Z,6.20
2017-10-06T14:50:36.496Z,6.20
2017-10-06T14:53:04.004Z,6.20
2017-10-06T14:55:31.541Z,6.20
2017-10-06T14:57:59.816Z,6.30
2017-10-06T15:00:27.341Z,6.20
2017-10-06T15:02:54.852Z,6.30
2017-10-06T15:05:22.377Z,6.30
2017-10-06T15:07:49.881Z,6.60
2017-10-06T15:10:17.409Z,6.60
2017-10-06T15:12:44.916Z,6.50
2017-10-06T15:15:13.200Z,6.30
2017-10-06T15:17:40.708Z,6.30
2017-10-06T15:20:08.224Z,6.30
2017-10-06T15:22:35.741Z,6.40
2017-10-06T15:25:03.244Z,6.50
2017-10-06T15:27:30.769Z,6.50
2017-10-06T15:29:59.048Z,6.50
2017-10-06T15:32:27.337Z,6.50
2017-10-06T15:34:55.613Z,6.50
2017-10-06T15:37:23.905Z,6.60
2017-10-06T15:39:51.411Z,6.60
2017-10-06T15:42:18.933Z,6.70
2017-10-06T15:44:46.436Z,6.70
2017-10-06T15:47:13.952Z,6.70
2017-10-06T15:49:41.456Z,6.70
2017-10-06T15:52:08.980Z,6.60
2017-10-06T15:54:36.484Z,6.60
2017-10-06T15:57:04.776Z,6.90
2017-10-06T15:59:33.055Z,6.60
2017-10-06T16:02:00.580Z,6.60
2017-10-06T16:04:28.093Z,6.60
2017-10-06T16:06:55.616Z,6.50
2017-10-06T16:09:23.892Z,6.70
2017-10-06T16:11:52.179Z,6.60
2017-10-06T16:14:20.448Z,6.70
2017-10-06T16:16:48.752Z,6.80
2017-10-06T16:19:16.261Z,6.70
2017-10-06T16:21:43.779Z,6.60
2017-10-06T16:24:11.284Z,6.70
2017-10-06T16:26:39.592Z,6.90
2017-10-06T16:29:07.092Z,6.90
2017-10-06T16:31:34.593Z,6.90
2017-10-06T16:34:02.878Z,6.80
2017-10-06T16:36:30.380Z,6.80
2017-10-06T16:38:57.896Z,6.70
2017-10-06T16:41:25.400Z,6.70
2017-10-06T16:43:52.927Z,7.00
2017-10-06T16:46:20.428Z,6.90
2017-10-06T16:48:47.948Z,6.90
2017-10-06T16:51:15.447Z,6.80
2017-10-06T16:53:42.968Z,6.80
2017-10-06T16:56:10.472Z,6.90
2017-10-06T16:58:37.992Z,6.90
2017-10-06T17:01:05.491Z,6.60
2017-10-06T17:03:33.117Z,6.60
2017-10-06T17:06:00.848Z,6.80
2017-10-06T17:08:28.364Z,6.80
2017-10-06T17:10:55.876Z,6.80
2017-10-06T17:13:23.392Z,6.80
2017-10-06T17:15:51.674Z,6.70
2017-10-06T17:18:19.964Z,6.60
2017-10-06T17:20:47.492Z,6.50
2017-10-06T17:23:15.013Z,6.80
2017-10-06T17:25:42.515Z,6.70
2017-10-06T17:28:10.048Z,6.60
2017-10-06T17:30:37.552Z,6.60
2017-10-06T17:33:06.109Z,6.50
2017-10-06T17:35:33.632Z,6.50
2017-10-06T17:38:01.138Z,6.60
2017-10-06T17:40:29.420Z,6.40
2017-10-06T17:42:57.684Z,6.50
2017-10-06T17:45:25.201Z,6.40
2017-10-06T17:47:52.708Z,6.40
2017-10-06T17:50:20.996Z,6.50
2017-10-06T17:52:48.503Z,6.50
2017-10-06T17:55:16.028Z,6.60
2017-10-06T17:57:43.531Z,6.60
2017-10-06T18:00:11.052Z,6.60
2017-10-06T18:02:38.553Z,6.40
2017-10-06T18:05:06.080Z,6.40
2017-10-06T18:07:33.580Z,6.50
2017-10-06T18:10:01.096Z,6.70
2017-10-06T18:12:28.592Z,6.60
2017-10-06T18:14:56.112Z,6.60
2017-10-06T18:17:23.613Z,6.60
2017-10-06T18:19:51.128Z,6.60
2017-10-06T18:22:18.631Z,6.50
2017-10-06T18:24:46.932Z,6.60
2017-10-06T18:27:14.455Z,6.60
2017-10-06T18:29:41.956Z,6.50
2017-10-06T18:32:09.479Z,6.40
2017-10-06T18:34:36.984Z,6.60
2017-10-06T18:37:04.511Z,6.60
2017-10-06T18:39:32.791Z,6.40
2017-10-06T18:42:01.076Z,6.40
2017-10-06T18:44:28.584Z,6.40
2017-10-06T18:46:56.109Z,6.50
2017-10-06T18:49:23.612Z,6.40
2017-10-06T18:51:51.132Z,6.40
2017-10-06T18:54:18.640Z,6.50
2017-10-06T18:56:47.040Z,6.60
2017-10-06T18:59:14.560Z,6.50
2017-10-06T19:01:42.164Z,6.50
2017-10-06T19:04:09.999Z,6.50
2017-10-06T19:06:37.523Z,6.50
2017-10-06T19:09:05.032Z,6.50
2017-10-06T19:11:33.319Z,6.50
2017-10-06T19:14:00.824Z,6.50
2017-10-06T19:16:28.352Z,6.60
2017-10-06T19:18:55.856Z,6.60
2017-10-06T19:21:23.385Z,6.60
2017-10-06T19:23:50.889Z,6.50
2017-10-06T19:26:19.195Z,6.60
2017-10-06T19:28:46.715Z,6.60
2017-10-06T19:31:14.254Z,6.70
2017-10-06T19:33:41.784Z,6.60
2017-10-06T19:36:09.292Z,6.60
2017-10-06T19:38:36.821Z,6.60
2017-10-06T19:41:04.324Z,6.70
2017-10-06T19:43:33.052Z,6.60
2017-10-06T19:46:01.423Z,6.60
2017-10-06T19:48:28.949Z,6.70
2017-10-06T19:50:57.228Z,6.60
2017-10-06T19:53:25.520Z,6.60
2017-10-06T19:55:53.103Z,6.60
2017-10-06T19:58:20.630Z,6.70
2017-10-06T20:00:48.140Z,6.70
2017-10-06T20:03:15.661Z,6.70
2017-10-06T20:05:43.168Z,6.80
2017-10-06T20:08:10.696Z,6.70
2017-10-06T20:10:38.199Z,6.70
2017-10-06T20:13:06.488Z,6.60
2017-10-06T20:15:34.758Z,6.60
2017-10-06T20:18:03.048Z,6.60
2017-10-06T20:20:30.552Z,6.60
2017-10-06T20:22:58.073Z,6.60
2017-10-06T20:25:25.663Z,6.60
2017-10-06T20:27:53.968Z,6.50
2017-10-06T20:30:23.084Z,6.50
2017-10-06T20:32:51.359Z,6.50
2017-10-06T20:35:19.644Z,6.50
2017-10-06T20:37:47.184Z,6.50
2017-10-06T20:40:15.471Z,6.60
2017-10-06T20:42:43.744Z,6.50
2017-10-06T20:45:12.032Z,6.60
2017-10-06T20:47:39.540Z,6.60
2017-10-06T20:50:07.077Z,6.60
2017-10-06T20:52:34.588Z,6.60
2017-10-06T20:55:03.618Z,6.60
2017-10-06T20:57:31.128Z,6.60
2017-10-06T20:59:58.660Z,6.60
2017-10-06T21:02:26.172Z,6.70
2017-10-06T21:04:54.459Z,6.60
2017-10-06T21:07:21.964Z,6.60
2017-10-06T21:09:49.494Z,6.70
2017-10-06T21:12:17.008Z,6.60
2017-10-06T21:14:45.310Z,6.60
2017-10-06T21:17:12.825Z,6.60
2017-10-06T21:19:40.346Z,6.60
2017-10-06T21:22:07.849Z,6.60
2017-10-06T21:24:35.877Z,6.60
2017-10-06T21:27:03.948Z,6.70
2017-10-06T21:29:31.509Z,6.70
2017-10-06T21:31:59.019Z,6.70
2017-10-06T21:34:27.288Z,6.70
2017-10-06T21:36:55.580Z,6.70
2017-10-06T21:39:23.858Z,6.70
2017-10-06T21:41:51.385Z,6.70
2017-10-06T21:44:18.900Z,6.80
2017-10-06T21:46:46.430Z,6.70
2017-10-06T21:49:14.712Z,6.80
2017-10-06T21:51:42.245Z,6.70
2017-10-06T21:54:09.748Z,6.70
2017-10-06T21:56:37.276Z,6.70
2017-10-06T21:59:05.545Z,6.70
2017-10-06T22:01:33.836Z,6.70
2017-10-06T22:04:02.104Z,6.80
2017-10-06T22:06:30.412Z,6.80
2017-10-06T22:08:57.912Z,6.80
2017-10-06T22:11:25.440Z,6.80
2017-10-06T22:13:52.944Z,6.80
2017-10-06T22:16:20.460Z,6.70
2017-10-06T22:18:47.968Z,6.70
2017-10-06T22:21:16.251Z,6.70
2017-10-06T22:23:44.525Z,6.70
2017-10-06T22:26:12.818Z,6.80
2017-10-06T22:28:40.323Z,6.80
2017-10-06T22:31:07.858Z,6.70
2017-10-06T22:33:35.360Z,6.70
2017-10-06T22:36:02.867Z,6.70
2017-10-06T22:38:30.378Z,6.80
2017-10-06T22:40:57.876Z,6.70
2017-10-06T22:43:25.386Z,6.70
2017-10-06T22:45:52.891Z,6.70
2017-10-06T22:48:20.420Z,6.70
2017-10-06T22:50:48.683Z,6.80
2017-10-06T22:53:16.199Z,6.70
2017-10-06T22:55:43.709Z,6.80
2017-10-06T22:58:12.028Z,6.80
2017-10-06T23:00:39.522Z,6.80
2017-10-06T23:03:07.039Z,6.80
2017-10-06T23:05:34.541Z,6.70
2017-10-06T23:08:02.061Z,6.80
2017-10-06T23:10:29.555Z,6.80
2017-10-06T23:12:57.074Z,6.90
2017-10-06T23:15:24.571Z,6.80
2017-10-06T23:17:52.199Z,6.80
2017-10-06T23:20:19.698Z,6.80
2017-10-06T23:22:47.216Z,6.80
2017-10-06T23:25:14.718Z,6.80
2017-10-06T23:27:42.231Z,6.80
2017-10-06T23:30:09.724Z,6.80
2017-10-06T23:32:37.247Z,6.90
2017-10-06T23:35:04.743Z,6.90
2017-10-06T23:37:32.242Z,6.90
2017-10-06T23:39:59.764Z,6.90
2017-10-06T23:42:28.035Z,6.90
2017-10-06T23:44:55.556Z,6.80
2017-10-06T23:47:23.060Z,6.80
2017-10-06T23:49:51.343Z,6.80
2017-10-06T23:52:19.623Z,6.80
2017-10-06T23:54:47.898Z,6.90
2017-10-06T23:57:16.159Z,6.90
2017-10-06T23:59:43.675Z,6.90
